Time;durP1;ratioP1;P1;durP2;ratioP2;P2;SDS_P1;SDS_P2;PMS_P1;PMS_P2;Temp;Humidity;BMP_temperature;BMP_pressure;BME280_temperature;BME280_humidity;BME280_pressure;Samples;Min_cycle;Max_cycle;Signal;HPM_P1;HPM_P2
2023/06/27 00:01:05;;;;;;;7.15;3.10;;;;;;;16.08;80.63;101922.28;5025603;28;20030;-60
2023/06/27 00:03:33;;;;;;;6.85;2.85;;;;;;;16.06;81.57;101929.97;5024070;28;20021;-60
2023/06/27 00:06:00;;;;;;;6.15;2.67;;;;;;;16.05;81.25;101926.38;5026344;28;20384;-60
2023/06/27 00:08:27;;;;;;;6.25;3.03;;;;;;;16.06;81.61;101925.28;5025833;28;20116;-60
2023/06/27 00:10:53;;;;;;;7.18;2.85;;;;;;;16.00;81.87;101926.25;5032311;28;20040;-60
2023/06/27 00:13:20;;;;;;;6.15;2.78;;;;;;;16.05;82.92;101926.38;5036694;28;20025;-60
2023/06/27 00:15:52;;;;;;;8.07;2.97;;;;;;;16.09;81.51;101916.50;5024794;28;20695;-60
2023/06/27 00:18:17;;;;;;;8.25;2.72;;;;;;;16.09;81.50;101923.97;5026649;28;20680;-60
2023/06/27 00:20:43;;;;;;;8.10;3.28;;;;;;;16.08;81.59;101923.13;5026527;28;20122;-60
2023/06/27 00:23:24;;;;;;;8.05;2.80;;;;;;;16.10;81.36;101922.88;5026704;28;20037;-60
2023/06/27 00:25:49;;;;;;;6.55;3.22;;;;;;;16.09;82.85;101923.97;5024481;28;20022;-59
2023/06/27 00:28:15;;;;;;;6.10;3.03;;;;;;;16.13;82.16;101918.81;5024269;28;20025;-60
2023/06/27 00:30:40;;;;;;;8.73;3.08;;;;;;;16.16;82.06;101919.13;5026987;28;20110;-59
2023/06/27 00:33:06;;;;;;;7.03;2.88;;;;;;;16.13;83.12;101927.13;5025753;28;20049;-62
2023/06/27 00:35:32;;;;;;;9.02;3.20;;;;;;;16.12;81.99;101914.31;5025232;28;20068;-60
2023/06/27 00:38:07;;;;;;;8.55;3.10;;;;;;;16.16;82.72;101923.84;5024738;28;20480;-60
2023/06/27 00:40:32;;;;;;;6.55;2.80;;;;;;;16.12;82.61;101923.50;5025886;28;20033;-60
2023/06/27 00:42:57;;;;;;;7.63;3.10;;;;;;;16.13;84.19;101918.81;5026364;28;20427;-60
2023/06/27 00:45:23;;;;;;;7.90;2.97;;;;;;;16.16;81.91;101923.84;5025890;28;20033;-61
2023/06/27 00:47:56;;;;;;;5.78;3.00;;;;;;;16.11;82.55;101918.19;5025630;28;20029;-60
2023/06/27 00:50:23;;;;;;;7.68;2.90;;;;;;;16.13;83.44;101921.56;5025273;28;20037;-60
2023/06/27 00:52:49;;;;;;;6.28;3.25;;;;;;;16.11;82.28;101915.41;5026018;28;20030;-60
2023/06/27 00:55:15;;;;;;;7.57;3.00;;;;;;;16.11;83.60;101926.50;5024549;28;20040;-60
2023/06/27 00:57:40;;;;;;;7.03;3.00;;;;;;;16.14;82.97;101929.63;5024658;28;20026;-60
2023/06/27 01:00:11;;;;;;;7.60;3.20;;;;;;;16.17;83.11;101925.53;5025263;28;20046;-60
2023/06/27 01:02:36;;;;;;;6.78;3.05;;;;;;;16.09;84.14;101919.28;5024700;28;20051;-60
2023/06/27 01:05:03;;;;;;;8.55;3.10;;;;;;;16.11;82.79;101921.78;5031217;28;20037;-62
2023/06/27 01:07:56;;;;;;;6.35;2.92;;;;;;;16.12;83.11;101928.19;5022399;28;20036;-60
2023/06/27 01:10:29;;;;;;;7.18;3.25;;;;;;;16.07;84.37;101923.38;5025491;28;20116;-60
2023/06/27 01:13:06;;;;;;;6.43;3.00;;;;;;;16.04;83.22;101927.47;5026541;28;20041;-61
2023/06/27 01:15:33;;;;;;;7.03;3.00;;;;;;;16.04;84.03;101933.00;5025639;28;20368;-61
2023/06/27 01:17:59;;;;;;;8.10;2.90;;;;;;;16.05;83.15;101922.75;5025583;28;20041;-62
2023/06/27 01:20:25;;;;;;;8.90;3.63;;;;;;;16.03;83.33;101922.16;5026257;28;20033;-60
2023/06/27 01:23:05;;;;;;;7.47;3.00;;;;;;;16.02;83.77;101915.78;5030238;28;20384;-61
2023/06/27 01:25:31;;;;;;;6.00;3.13;;;;;;;15.97;84.91;101915.66;5029523;28;20452;-60
2023/06/27 01:27:57;;;;;;;8.05;3.20;;;;;;;15.98;84.63;101922.06;5029318;28;20108;-62
2023/06/27 01:30:22;;;;;;;8.00;3.58;;;;;;;15.95;84.83;101928.91;5029880;28;20039;-60
2023/06/27 01:33:11;;;;;;;7.05;3.67;;;;;;;15.94;84.69;101927.22;5029661;28;20030;-60
2023/06/27 01:35:57;;;;;;;6.40;3.20;;;;;;;15.91;85.38;101927.69;5029039;28;20037;-62
2023/06/27 01:38:32;;;;;;;8.57;3.40;;;;;;;15.76;85.83;101930.97;5028360;28;20088;-61
2023/06/27 01:40:59;;;;;;;8.75;3.30;;;;;;;15.73;87.06;101925.03;5028567;28;20069;-60
2023/06/27 01:43:26;;;;;;;8.00;3.15;;;;;;;15.72;87.06;101923.38;5029645;28;20030;-61
2023/06/27 01:45:53;;;;;;;7.55;3.40;;;;;;;15.72;85.82;101926.97;5029916;28;20025;-60
2023/06/27 01:48:20;;;;;;;8.07;3.40;;;;;;;15.70;86.88;101929.13;5026704;28;20084;-60
2023/06/27 01:50:45;;;;;;;7.20;3.88;;;;;;;15.63;87.03;101920.09;5029151;28;20029;-61
2023/06/27 01:53:11;;;;;;;8.52;3.60;;;;;;;15.66;87.01;101915.97;5029741;28;20030;-60
2023/06/27 01:55:36;;;;;;;8.70;3.70;;;;;;;15.66;87.02;101918.75;5028581;28;20113;-61
2023/06/27 01:58:01;;;;;;;8.43;3.58;;;;;;;15.66;87.06;101913.22;5026191;28;20384;-61
2023/06/27 02:00:27;;;;;;;9.02;4.03;;;;;;;15.68;87.50;101916.59;5028879;28;20049;-61
2023/06/27 02:02:52;;;;;;;6.50;4.05;;;;;;;15.69;88.14;101921.06;5029455;28;20057;-60
2023/06/27 02:05:18;;;;;;;8.88;3.63;;;;;;;15.66;86.84;101914.09;5028483;28;20026;-61
2023/06/27 02:07:43;;;;;;;9.18;3.70;;;;;;;15.66;87.15;101914.09;5025467;28;20707;-60
2023/06/27 02:10:09;;;;;;;7.32;3.75;;;;;;;15.64;87.42;101912.63;5028500;28;20506;-59
2023/06/27 02:12:34;;;;;;;6.50;3.53;;;;;;;15.61;87.32;101911.13;5028631;28;20041;-61
2023/06/27 02:14:59;;;;;;;7.88;3.95;;;;;;;15.63;86.94;101908.13;5029248;28;20032;-60
2023/06/27 02:17:25;;;;;;;8.07;3.55;;;;;;;15.60;87.16;101901.13;5028900;28;20043;-60
2023/06/27 02:19:50;;;;;;;7.55;3.65;;;;;;;15.64;88.12;101907.06;5029090;28;20140;-61
2023/06/27 02:22:15;;;;;;;7.57;3.60;;;;;;;15.66;88.52;101907.66;5027645;28;20746;-60
2023/06/27 02:24:40;;;;;;;8.60;3.50;;;;;;;15.65;87.73;101909.59;5028725;28;20087;-60
2023/06/27 02:27:06;;;;;;;7.93;3.42;;;;;;;15.68;88.02;101905.53;5026489;28;20083;-61
2023/06/27 02:29:31;;;;;;;7.72;3.70;;;;;;;15.62;88.24;101898.16;5028441;28;20052;-60
2023/06/27 02:31:57;;;;;;;8.30;3.63;;;;;;;15.63;88.03;101909.00;5026180;28;20029;-61
2023/06/27 02:34:22;;;;;;;7.75;3.90;;;;;;;15.62;87.63;101899.00;5029083;28;20424;-61
2023/06/27 02:36:47;;;;;;;9.07;3.72;;;;;;;15.57;87.69;101899.69;5027290;28;20040;-60
2023/06/27 02:39:12;;;;;;;7.57;3.58;;;;;;;15.55;88.42;101898.25;5027572;28;20217;-60
2023/06/27 02:41:38;;;;;;;8.95;3.88;;;;;;;15.54;88.47;101893.78;5035234;28;20076;-60
2023/06/27 02:44:03;;;;;;;7.97;3.67;;;;;;;15.52;88.61;101893.19;5028972;28;20371;-61
2023/06/27 02:46:28;;;;;;;10.07;4.00;;;;;;;15.50;88.31;101893.41;5027435;28;20037;-60
2023/06/27 02:48:54;;;;;;;9.13;3.92;;;;;;;15.51;88.41;101897.03;5029609;28;20029;-59
2023/06/27 02:51:21;;;;;;;8.82;4.00;;;;;;;15.46;88.47;101900.53;5027001;28;20017;-61
2023/06/27 02:53:46;;;;;;;9.18;4.10;;;;;;;15.45;89.21;101893.28;5027771;28;20042;-60
2023/06/27 02:56:12;;;;;;;10.13;3.85;;;;;;;15.44;89.30;101891.59;5028365;28;20024;-61
2023/06/27 02:58:38;;;;;;;8.65;4.05;;;;;;;15.42;89.22;101896.53;5026621;28;20056;-59
2023/06/27 03:01:03;;;;;;;9.73;3.72;;;;;;;15.41;90.64;101894.88;5027488;28;20104;-60
2023/06/27 03:03:29;;;;;;;9.10;4.88;;;;;;;15.38;89.91;101900.84;5028910;28;20108;-60
2023/06/27 03:05:54;;;;;;;9.40;4.07;;;;;;;15.36;90.05;101900.25;5026808;28;20329;-61
2023/06/27 03:08:20;;;;;;;8.10;3.55;;;;;;;15.33;90.73;101906.25;5027417;28;20053;-60
2023/06/27 03:10:45;;;;;;;8.70;3.60;;;;;;;15.29;91.97;101905.03;5025384;28;20096;-61
2023/06/27 03:13:11;;;;;;;7.63;3.40;;;;;;;15.24;91.12;101900.22;5030475;28;20059;-61
2023/06/27 03:15:36;;;;;;;7.43;3.50;;;;;;;15.22;91.30;101910.69;5027710;28;20116;-60
2023/06/27 03:18:01;;;;;;;8.95;3.65;;;;;;;15.24;92.05;101910.44;5027674;28;20087;-59
2023/06/27 03:20:26;;;;;;;9.57;3.95;;;;;;;15.24;91.65;101910.44;5026749;28;20025;-60
2023/06/27 03:22:52;;;;;;;10.07;3.95;;;;;;;15.29;92.49;101907.81;5027957;28;20542;-60
2023/06/27 03:25:18;;;;;;;8.98;3.50;;;;;;;15.23;91.45;101909.59;5027106;28;20022;-60
2023/06/27 03:27:43;;;;;;;9.43;3.67;;;;;;;15.22;91.80;101907.06;5026132;28;20473;-61
2023/06/27 03:30:09;;;;;;;8.68;4.07;;;;;;;15.21;92.24;101900.72;5027302;28;20048;-60
2023/06/27 03:32:35;;;;;;;8.27;3.60;;;;;;;15.17;92.42;101904.19;5033987;28;20029;-61
2023/06/27 03:35:00;;;;;;;7.13;3.58;;;;;;;15.20;93.81;101909.22;5027945;28;20350;-60
2023/06/27 03:37:26;;;;;;;7.68;3.65;;;;;;;15.21;94.22;101908.16;5026327;28;20048;-61
2023/06/27 03:39:51;;;;;;;8.20;3.30;;;;;;;15.21;93.43;101902.63;5027704;28;20029;-61
2023/06/27 03:42:17;;;;;;;9.63;3.53;;;;;;;15.20;92.86;101912.81;5026519;28;20029;-59
2023/06/27 03:44:42;;;;;;;7.55;3.45;;;;;;;15.18;93.18;101908.63;5026654;28;20041;-60
2023/06/27 03:47:08;;;;;;;7.97;3.45;;;;;;;15.16;93.07;101905.25;5026380;28;20021;-60
2023/06/27 03:49:33;;;;;;;8.45;3.67;;;;;;;15.14;93.39;101901.88;5027223;28;20025;-60
2023/06/27 03:51:59;;;;;;;8.70;3.80;;;;;;;15.15;93.98;101904.38;5027011;28;20025;-61
2023/06/27 03:54:24;;;;;;;8.60;3.42;;;;;;;15.16;92.58;101908.03;5026999;28;20037;-61
2023/06/27 03:56:49;;;;;;;7.85;3.38;;;;;;;15.13;93.96;101909.31;5027007;28;20483;-60
2023/06/27 03:59:15;;;;;;;11.10;4.03;;;;;;;15.12;93.75;101909.56;5026210;28;20089;-60
2023/06/27 04:01:41;;;;;;;9.05;4.18;;;;;;;15.12;94.09;101907.66;5023972;28;20100;-60
2023/06/27 04:04:07;;;;;;;9.27;3.90;;;;;;;15.13;93.75;101911.25;5027191;28;20060;-60
2023/06/27 04:06:32;;;;;;;8.10;3.58;;;;;;;15.13;93.61;101902.94;5037383;28;20091;-60
2023/06/27 04:08:58;;;;;;;11.15;4.30;;;;;;;15.11;93.79;101908.72;5025269;28;20037;-59
2023/06/27 04:11:23;;;;;;;8.50;3.47;;;;;;;15.13;94.41;101911.25;5026750;28;20071;-60
2023/06/27 04:13:48;;;;;;;8.05;3.53;;;;;;;15.08;94.09;101900.88;5026961;28;20025;-61
2023/06/27 04:16:14;;;;;;;10.93;4.00;;;;;;;15.08;94.17;101911.13;5024380;28;20029;-61
2023/06/27 04:18:40;;;;;;;9.55;4.03;;;;;;;15.03;94.97;101909.03;5027286;28;20030;-60
2023/06/27 04:21:06;;;;;;;8.27;3.58;;;;;;;15.00;95.18;101910.38;5026690;28;20025;-60
2023/06/27 04:23:32;;;;;;;9.02;3.95;;;;;;;14.99;94.97;101902.28;5026673;28;20124;-60
2023/06/27 04:26:04;;;;;;;9.27;4.07;;;;;;;14.99;96.28;101899.53;5046900;28;20488;-61
2023/06/27 04:28:39;;;;;;;10.18;4.22;;;;;;;15.02;96.18;101910.13;5039128;28;20090;-60
2023/06/27 04:31:04;;;;;;;8.55;3.95;;;;;;;14.98;95.87;101906.97;5016510;28;20398;-61
2023/06/27 04:33:30;;;;;;;8.63;3.95;;;;;;;14.98;96.08;101904.22;5025781;28;20030;-60
2023/06/27 04:36:00;;;;;;;8.15;3.83;;;;;;;14.97;96.89;101910.84;5024914;28;20029;-63
2023/06/27 04:38:29;;;;;;;9.93;4.05;;;;;;;14.96;97.16;101909.16;5025364;28;20468;-60
2023/06/27 04:40:55;;;;;;;11.82;4.00;;;;;;;14.92;97.39;101910.69;5024955;28;20468;-60
2023/06/27 04:43:20;;;;;;;10.15;3.95;;;;;;;14.92;97.19;101919.00;5026667;28;20111;-60
2023/06/27 04:45:45;;;;;;;9.38;3.60;;;;;;;14.92;97.88;101924.53;5023713;28;20029;-61
2023/06/27 04:48:11;;;;;;;9.85;4.40;;;;;;;14.94;98.39;101908.53;5026924;28;20117;-60
2023/06/27 04:50:36;;;;;;;8.25;3.72;;;;;;;14.91;98.49;101917.31;5026607;28;20041;-60
2023/06/27 04:53:03;;;;;;;9.73;4.30;;;;;;;14.88;99.60;101922.44;5025990;28;20026;-59
2023/06/27 04:55:29;;;;;;;12.50;4.22;;;;;;;14.91;99.73;101925.59;5024992;28;20034;-59
2023/06/27 04:57:54;;;;;;;11.18;4.00;;;;;;;14.90;99.41;101929.44;5018431;28;20142;-59
2023/06/27 05:00:20;;;;;;;10.07;4.35;;;;;;;14.90;99.41;101926.69;5021625;28;20069;-60
2023/06/27 05:02:45;;;;;;;8.98;4.25;;;;;;;14.92;99.08;101930.06;5025522;28;20102;-60
2023/06/27 05:05:11;;;;;;;9.80;4.18;;;;;;;14.92;99.82;101927.28;5025452;28;20029;-60
2023/06/27 05:07:36;;;;;;;11.13;4.03;;;;;;;14.90;99.24;101923.06;5026303;28;20061;-60
2023/06/27 05:10:01;;;;;;;10.18;4.35;;;;;;;14.90;99.55;101931.34;5025497;28;20106;-60
2023/06/27 05:12:27;;;;;;;9.35;4.60;;;;;;;14.95;99.63;101928.72;5026499;28;20025;-61
2023/06/27 05:14:52;;;;;;;10.90;4.80;;;;;;;14.94;100.00;101938.09;5026672;28;20686;-60
2023/06/27 05:17:17;;;;;;;10.68;4.53;;;;;;;14.97;100.00;101932.13;5025991;28;20022;-59
2023/06/27 05:19:42;;;;;;;9.80;4.70;;;;;;;14.99;100.00;101921.66;5025397;28;20124;-61
2023/06/27 05:22:08;;;;;;;9.32;4.65;;;;;;;15.05;100.00;101929.00;5026024;28;20109;-59
2023/06/27 05:24:33;;;;;;;9.68;4.82;;;;;;;15.18;99.17;101928.00;5025683;28;20114;-60
2023/06/27 05:26:59;;;;;;;11.30;4.88;;;;;;;15.13;100.00;101925.94;5026033;28;20415;-61
2023/06/27 05:29:24;;;;;;;9.27;4.72;;;;;;;15.17;100.00;101929.09;5026496;28;20509;-59
2023/06/27 05:31:49;;;;;;;10.20;4.78;;;;;;;15.22;99.94;101930.06;5026118;28;20115;-59
2023/06/27 05:34:15;;;;;;;10.68;4.88;;;;;;;15.26;99.71;101925.75;5024610;28;20025;-61
2023/06/27 05:36:40;;;;;;;9.52;4.88;;;;;;;15.31;100.00;101933.34;5025837;28;20032;-62
2023/06/27 05:39:05;;;;;;;9.50;5.03;;;;;;;15.37;100.00;101932.41;5022962;28;20024;-60
2023/06/27 05:41:32;;;;;;;11.45;4.90;;;;;;;15.44;100.00;101933.13;5025795;28;20025;-60
2023/06/27 05:43:57;;;;;;;11.02;5.65;;;;;;;15.46;100.00;101925.44;5026206;28;20032;-59
2023/06/27 05:46:22;;;;;;;10.90;5.50;;;;;;;15.57;100.00;101924.63;5023932;28;20014;-60
2023/06/27 05:48:48;;;;;;;9.93;5.50;;;;;;;15.68;100.00;101928.53;5023876;28;20026;-61
2023/06/27 05:51:13;;;;;;;11.93;5.45;;;;;;;15.75;100.00;101923.69;5020775;28;20014;-60
2023/06/27 05:53:39;;;;;;;9.68;5.05;;;;;;;15.85;100.00;101923.13;5023125;28;20021;-59
2023/06/27 05:56:05;;;;;;;11.90;4.60;;;;;;;15.97;100.00;101926.75;5022891;28;20037;-60
2023/06/27 05:58:30;;;;;;;12.35;5.50;;;;;;;16.13;99.51;101930.72;5021315;28;20026;-60
2023/06/27 06:00:56;;;;;;;10.57;5.38;;;;;;;16.22;100.00;101933.97;5024666;28;20385;-61
2023/06/27 06:03:22;;;;;;;10.10;5.18;;;;;;;16.28;99.58;101930.25;5023220;28;20400;-59
2023/06/27 06:05:47;;;;;;;10.63;5.63;;;;;;;16.34;99.46;101927.34;5023137;28;20094;-60
2023/06/27 06:08:13;;;;;;;9.63;5.32;;;;;;;16.40;98.77;101922.75;5028413;28;20112;-60
2023/06/27 06:10:38;;;;;;;10.45;5.70;;;;;;;16.49;99.59;101926.81;5029715;28;20021;-60
2023/06/27 06:13:04;;;;;;;10.48;5.38;;;;;;;16.57;97.96;101926.47;5029063;28;20105;-60
2023/06/27 06:15:29;;;;;;;10.02;4.85;;;;;;;16.70;98.57;101922.56;5029248;28;20041;-59
2023/06/27 06:17:54;;;;;;;12.40;5.45;;;;;;;16.78;98.00;101922.22;5029653;28;20022;-59
2023/06/27 06:20:20;;;;;;;10.38;5.80;;;;;;;16.86;97.89;101923.75;5028112;28;20205;-60
2023/06/27 06:22:46;;;;;;;8.88;5.07;;;;;;;16.92;97.03;101922.75;5029473;28;20037;-59
2023/06/27 06:25:12;;;;;;;12.40;6.32;;;;;;;16.99;97.05;101925.41;5028147;28;20025;-60
2023/06/27 06:27:37;;;;;;;12.13;5.88;;;;;;;17.10;97.17;101925.34;5028900;28;20021;-59
2023/06/27 06:30:03;;;;;;;10.48;5.43;;;;;;;17.18;97.05;101926.03;5028865;28;20376;-60
2023/06/27 06:32:28;;;;;;;11.10;5.47;;;;;;;17.24;96.01;101923.13;5029496;28;20033;-61
2023/06/27 06:34:53;;;;;;;10.60;4.70;;;;;;;17.31;95.55;101936.84;5028845;28;20029;-60
2023/06/27 06:37:19;;;;;;;10.43;5.18;;;;;;;17.38;95.68;101935.56;5028858;28;20032;-59
2023/06/27 06:39:44;;;;;;;10.05;5.72;;;;;;;17.46;95.01;101933.50;5027830;28;20029;-61
2023/06/27 06:42:10;;;;;;;9.90;4.90;;;;;;;17.53;94.02;101935.00;5025452;28;20112;-60
2023/06/27 06:44:35;;;;;;;10.35;5.00;;;;;;;17.61;93.14;101940.16;5038002;28;20033;-59
2023/06/27 06:47:00;;;;;;;9.70;4.63;;;;;;;17.69;91.63;101941.69;5049054;28;20029;-60
2023/06/27 06:49:26;;;;;;;11.52;5.10;;;;;;;17.79;91.38;101938.25;5048762;28;20048;-61
2023/06/27 06:51:51;;;;;;;11.05;4.57;;;;;;;17.87;89.74;101946.19;5047431;28;20044;-61
2023/06/27 06:54:17;;;;;;;8.48;4.20;;;;;;;17.95;89.07;101943.00;5026786;28;20041;-61
2023/06/27 06:56:43;;;;;;;9.15;4.03;;;;;;;18.03;88.28;101950.88;5028762;28;20025;-60
2023/06/27 06:59:08;;;;;;;9.75;4.10;;;;;;;18.13;87.74;101944.66;5028173;28;20495;-60
2023/06/27 07:01:33;;;;;;;8.48;4.20;;;;;;;18.23;88.11;101943.97;5028265;28;20036;-59
2023/06/27 07:03:59;;;;;;;8.98;3.67;;;;;;;18.35;84.68;101953.06;5027104;28;20057;-59
2023/06/27 07:06:24;;;;;;;9.95;3.33;;;;;;;18.40;83.54;101939.22;5028799;28;20337;-61
2023/06/27 07:08:52;;;;;;;9.60;3.78;;;;;;;18.48;83.90;101940.72;5027850;28;20027;-60
2023/06/27 07:11:17;;;;;;;10.32;3.40;;;;;;;18.56;82.79;101948.63;5028023;28;20384;-59
2023/06/27 07:13:42;;;;;;;9.70;3.92;;;;;;;18.70;84.64;101946.31;5024736;28;20022;-61
2023/06/27 07:16:08;;;;;;;7.85;3.40;;;;;;;18.79;81.54;101940.03;5024242;28;20469;-61
2023/06/27 07:18:33;;;;;;;7.30;3.38;;;;;;;18.99;80.89;101953.38;5028822;28;20033;-60
2023/06/27 07:20:58;;;;;;;6.97;3.30;;;;;;;19.33;79.82;101942.06;5027078;28;20033;-60
2023/06/27 07:23:23;;;;;;;6.47;2.30;;;;;;;19.48;76.99;101947.78;5023588;28;20095;-61
2023/06/27 07:25:49;;;;;;;6.93;2.25;;;;;;;19.55;72.48;101945.63;5027998;28;20025;-60
2023/06/27 07:28:14;;;;;;;5.97;2.20;;;;;;;19.58;72.34;101947.88;5028005;28;20144;-59
2023/06/27 07:30:39;;;;;;;5.35;1.75;;;;;;;19.52;71.76;101940.59;5028194;28;20025;-60
2023/06/27 07:33:05;;;;;;;5.57;1.70;;;;;;;19.49;69.12;101935.53;5027071;28;20743;-60
2023/06/27 07:35:30;;;;;;;7.80;2.42;;;;;;;19.57;70.22;101935.06;5027654;28;20112;-60
2023/06/27 07:37:55;;;;;;;5.90;2.00;;;;;;;19.77;71.58;101928.00;5021578;28;20084;-63
2023/06/27 07:40:21;;;;;;;5.75;1.90;;;;;;;19.75;69.95;101944.16;5020838;28;20033;-61
2023/06/27 07:42:46;;;;;;;6.75;1.90;;;;;;;19.76;68.90;101943.03;5022358;28;20120;-61
2023/06/27 07:45:11;;;;;;;5.97;2.00;;;;;;;19.79;69.86;101939.72;5029349;28;20025;-60
2023/06/27 07:47:37;;;;;;;6.22;1.70;;;;;;;20.12;70.89;101945.03;5050363;28;20029;-60
2023/06/27 07:50:02;;;;;;;4.85;1.70;;;;;;;20.37;68.82;101941.53;5035884;28;20052;-59
2023/06/27 07:52:28;;;;;;;5.68;1.83;;;;;;;20.41;64.52;101933.47;5027362;28;20025;-59
2023/06/27 07:54:53;;;;;;;4.75;1.70;;;;;;;20.49;66.13;101938.59;5022621;28;20033;-60
2023/06/27 07:57:18;;;;;;;6.05;2.70;;;;;;;20.67;66.79;101935.31;5028021;28;20025;-59
2023/06/27 07:59:44;;;;;;;7.90;1.80;;;;;;;20.69;66.36;101940.66;5037472;28;20496;-59
2023/06/27 08:02:09;;;;;;;5.25;1.70;;;;;;;20.72;65.94;101942.88;5020240;28;20030;-61
2023/06/27 08:04:35;;;;;;;5.03;1.80;;;;;;;20.79;65.67;101937.06;5027442;28;20131;-60
2023/06/27 08:07:00;;;;;;;7.22;3.03;;;;;;;20.91;67.48;101937.66;5032730;28;20061;-60
2023/06/27 08:09:25;;;;;;;4.75;1.73;;;;;;;20.93;61.79;101930.69;5025802;28;20191;-63
2023/06/27 08:11:51;;;;;;;7.30;1.98;;;;;;;20.98;61.03;101935.44;5028086;28;20029;-59
2023/06/27 08:14:16;;;;;;;5.35;1.52;;;;;;;21.19;63.91;101939.16;5024249;28;20030;-61
2023/06/27 08:16:42;;;;;;;6.50;2.22;;;;;;;21.21;61.17;101929.38;5026119;28;20029;-60
2023/06/27 08:19:07;;;;;;;3.78;1.40;;;;;;;21.39;61.91;101930.84;5034527;28;20101;-61
2023/06/27 08:21:32;;;;;;;3.95;1.30;;;;;;;21.47;57.22;101926.66;5027970;28;20587;-60
2023/06/27 08:23:58;;;;;;;6.15;1.60;;;;;;;21.37;58.75;101933.06;5029207;28;20033;-61
2023/06/27 08:26:23;;;;;;;4.80;1.45;;;;;;;21.36;60.15;101930.53;5024711;28;20033;-60
2023/06/27 08:28:48;;;;;;;4.60;1.38;;;;;;;21.36;60.29;101930.53;5027585;28;20116;-60
2023/06/27 08:31:14;;;;;;;4.57;1.45;;;;;;;21.34;62.34;101933.63;5029783;28;20437;-61
2023/06/27 08:33:39;;;;;;;5.30;1.80;;;;;;;21.40;61.38;101926.94;5023407;28;20040;-59
2023/06/27 08:36:06;;;;;;;5.05;1.60;;;;;;;21.33;61.20;101931.94;5024665;28;20037;-59
2023/06/27 08:38:31;;;;;;;5.43;1.40;;;;;;;21.13;60.37;101931.84;5025087;28;20052;-60
2023/06/27 08:40:57;;;;;;;3.45;1.40;;;;;;;20.93;62.89;101935.41;5022438;28;20385;-61
2023/06/27 08:43:23;;;;;;;3.85;1.40;;;;;;;20.73;63.14;101934.25;5013877;28;20033;-59
2023/06/27 08:45:51;;;;;;;5.93;1.98;;;;;;;20.52;62.08;101931.59;5026988;28;20033;-59
2023/06/27 08:48:17;;;;;;;6.15;2.00;;;;;;;20.40;62.05;101929.00;5026435;28;20037;-60
2023/06/27 08:50:43;;;;;;;5.72;1.70;;;;;;;20.44;63.31;101933.78;5026543;28;20833;-60
2023/06/27 08:53:22;;;;;;;6.00;1.67;;;;;;;20.47;63.45;101935.22;5014455;28;20029;-61
2023/06/27 08:56:06;;;;;;;4.07;1.40;;;;;;;20.49;63.33;101932.16;5005467;28;20472;-61
2023/06/27 08:58:48;;;;;;;6.00;1.40;;;;;;;20.60;62.33;101934.72;5018861;28;20025;-60
2023/06/27 09:01:13;;;;;;;5.80;1.60;;;;;;;20.83;61.54;101921.41;5019992;28;20033;-60
2023/06/27 09:03:39;;;;;;;4.10;1.48;;;;;;;21.02;59.92;101919.81;5021926;28;20041;-59
2023/06/27 09:06:05;;;;;;;5.50;1.73;;;;;;;21.02;57.40;101919.81;5021201;28;20026;-61
2023/06/27 09:08:34;;;;;;;3.53;1.40;;;;;;;21.07;58.11;101922.63;5023531;28;20034;-60
2023/06/27 09:11:01;;;;;;;6.32;1.45;;;;;;;21.20;58.57;101922.09;5022996;28;20026;-60
2023/06/27 09:13:27;;;;;;;3.90;1.60;;;;;;;21.53;58.21;101922.72;5023870;28;20029;-61
2023/06/27 09:15:53;;;;;;;5.28;1.55;;;;;;;21.65;57.82;101928.91;5023395;28;20037;-59
2023/06/27 09:18:18;;;;;;;4.25;1.65;;;;;;;21.69;58.14;101920.78;5025690;28;20034;-60
2023/06/27 09:20:44;;;;;;;4.15;1.50;;;;;;;21.67;56.93;101923.88;5026269;28;20037;-60
2023/06/27 09:23:10;;;;;;;4.47;1.55;;;;;;;21.85;58.23;101919.69;5017727;28;20025;-61
2023/06/27 09:25:36;;;;;;;3.38;1.25;;;;;;;22.26;57.41;101916.84;5006947;28;20030;-60
2023/06/27 09:28:17;;;;;;;5.35;1.25;;;;;;;22.64;51.85;101922.88;5007510;28;20025;-60
2023/06/27 09:30:54;;;;;;;3.13;1.02;;;;;;;22.73;50.53;101933.22;5012164;28;20029;-61
2023/06/27 09:33:20;;;;;;;6.35;2.00;;;;;;;22.82;50.37;101925.06;5001903;28;20117;-61
2023/06/27 09:35:45;;;;;;;4.07;0.95;;;;;;;22.63;46.80;101929.63;5002789;28;20112;-60
2023/06/27 09:38:11;;;;;;;4.10;1.13;;;;;;;22.45;48.12;101937.50;5005647;28;20562;-60
2023/06/27 09:40:37;;;;;;;4.10;1.15;;;;;;;22.33;48.35;101930.53;5012049;28;20069;-60
2023/06/27 09:43:04;;;;;;;3.35;0.93;;;;;;;22.19;47.32;101936.72;5025499;28;20053;-61
2023/06/27 09:45:30;;;;;;;3.50;1.15;;;;;;;22.19;50.35;101956.31;5014770;28;20022;-61
2023/06/27 09:47:57;;;;;;;2.70;0.90;;;;;;;22.15;49.83;101948.75;5010728;28;20499;-62
2023/06/27 09:50:30;;;;;;;3.63;1.00;;;;;;;22.22;49.26;101949.31;5014403;28;20031;-61
2023/06/27 09:53:02;;;;;;;2.95;1.02;;;;;;;22.27;49.60;101950.16;5014368;28;20033;-61
2023/06/27 09:55:28;;;;;;;2.78;1.20;;;;;;;22.54;49.45;101941.38;5010939;28;20025;-60
2023/06/27 09:57:53;;;;;;;3.60;1.00;;;;;;;22.90;48.99;101941.28;5020277;28;20029;-60
2023/06/27 10:00:21;;;;;;;2.55;1.10;;;;;;;23.01;48.29;101939.25;5025603;28;20392;-59
2023/06/27 10:02:50;;;;;;;3.47;1.40;;;;;;;22.96;47.96;101942.09;5025747;28;20041;-61
2023/06/27 10:05:17;;;;;;;1.88;0.80;;;;;;;22.95;47.34;101935.66;5038583;28;20033;-60
2023/06/27 10:07:44;;;;;;;3.05;0.98;;;;;;;22.80;46.90;101936.53;5014812;28;20021;-60
2023/06/27 10:10:10;;;;;;;4.35;0.93;;;;;;;23.06;49.04;101939.25;5022812;28;20044;-61
2023/06/27 10:12:36;;;;;;;4.03;1.00;;;;;;;24.00;47.69;101936.34;5023296;28;20034;-61
2023/06/27 10:15:03;;;;;;;3.05;1.05;;;;;;;24.87;43.26;101944.69;5010343;28;20287;-60
2023/06/27 10:17:28;;;;;;;3.53;1.10;;;;;;;25.14;42.00;101946.03;5017306;28;20044;-60
2023/06/27 10:19:54;;;;;;;2.63;1.10;;;;;;;25.19;42.34;101948.78;5020625;28;20038;-60
2023/06/27 10:22:21;;;;;;;3.65;1.35;;;;;;;24.69;43.92;101940.72;5020305;28;20488;-61
2023/06/27 10:24:51;;;;;;;4.40;1.20;;;;;;;24.51;44.33;101947.94;5007476;28;20045;-61
2023/06/27 10:27:20;;;;;;;2.15;1.00;;;;;;;24.68;42.70;101947.44;5010341;28;20021;-60
2023/06/27 10:29:46;;;;;;;2.17;0.82;;;;;;;26.50;41.04;101944.09;5020008;28;20025;-60
2023/06/27 10:32:16;;;;;;;2.70;1.00;;;;;;;26.53;38.08;101949.13;5014260;28;20480;-60
2023/06/27 10:34:43;;;;;;;4.75;1.05;;;;;;;27.15;38.69;101941.88;5009012;28;20026;-60
2023/06/27 10:37:10;;;;;;;2.72;0.98;;;;;;;27.17;37.95;101941.59;5012150;28;20048;-63
2023/06/27 10:39:37;;;;;;;2.40;0.90;;;;;;;26.10;37.69;101940.88;5028679;28;20408;-60
2023/06/27 10:42:25;;;;;;;3.15;0.90;;;;;;;25.98;40.26;101938.56;5029243;28;20032;-60
2023/06/27 10:44:53;;;;;;;3.17;0.95;;;;;;;26.00;40.03;101935.41;5029305;28;20045;-61
2023/06/27 10:47:19;;;;;;;3.80;1.10;;;;;;;25.94;39.15;101931.03;5028344;28;20029;-61
2023/06/27 10:49:48;;;;;;;3.33;1.10;;;;;;;25.89;39.93;101934.78;5028841;28;20835;-60
2023/06/27 10:52:24;;;;;;;2.67;1.00;;;;;;;25.82;40.14;101925.91;5027385;28;20036;-60
2023/06/27 10:55:15;;;;;;;2.90;0.95;;;;;;;25.45;39.73;101926.78;5029329;28;20027;-61
2023/06/27 10:57:42;;;;;;;2.78;1.00;;;;;;;24.91;40.39;101923.28;5027349;28;20040;-61
2023/06/27 11:00:34;;;;;;;;;;;;;;;25.29;42.36;101920.50;5029133;28;20084;-60
2023/06/27 11:03:03;;;;;;;3.58;1.00;;;;;;;24.66;40.30;101929.22;5019238;28;20245;-60
2023/06/27 11:05:47;;;;;;;3.72;1.00;;;;;;;24.38;43.19;101928.13;5021890;28;20052;-60
2023/06/27 11:08:15;;;;;;;3.28;0.98;;;;;;;24.09;41.13;101926.19;5028476;28;20022;-61
2023/06/27 11:10:52;;;;;;;3.85;1.00;;;;;;;24.34;42.97;101925.91;5028696;28;20029;-61
2023/06/27 11:13:22;;;;;;;3.40;1.20;;;;;;;24.54;41.76;101927.69;5029056;28;20492;-60
2023/06/27 11:15:49;;;;;;;4.72;1.20;;;;;;;24.34;42.47;101920.28;5024408;28;20037;-60
2023/06/27 11:18:15;;;;;;;3.47;1.42;;;;;;;23.90;43.52;101922.41;5026983;28;20365;-60
2023/06/27 11:20:42;;;;;;;3.63;1.20;;;;;;;23.66;45.38;101927.94;5026059;28;20033;-61
2023/06/27 11:23:07;;;;;;;3.10;1.10;;;;;;;23.47;46.21;101928.63;5013336;28;20030;-60